createdAt,value
2018-06-22T00:04:41.126Z,26.90
2018-06-22T00:07:18.392Z,26.90
2018-06-22T00:09:55.858Z,24.50
2018-06-22T00:12:32.621Z,27.10
2018-06-22T00:15:09.671Z,27.10
2018-06-22T00:17:47.453Z,27.10
2018-06-22T00:20:24.636Z,27.10
2018-06-22T00:23:02.254Z,27.00
2018-06-22T00:25:39.342Z,27.10
2018-06-22T00:28:16.419Z,27.10
2018-06-22T00:30:53.109Z,27.10
2018-06-22T00:33:29.778Z,27.10
2018-06-22T00:36:06.992Z,27.10
2018-06-22T00:38:43.697Z,27.10
2018-06-22T00:41:20.713Z,27.10
2018-06-22T00:49:10.292Z,26.80
2018-06-22T00:51:47.195Z,26.80
2018-06-22T00:54:24.449Z,26.80
2018-06-22T00:57:01.093Z,26.80
2018-06-22T00:59:37.800Z,26.80
2018-06-22T01:02:14.725Z,26.80
2018-06-22T01:04:52.451Z,26.70
2018-06-22T01:07:30.320Z,26.70
2018-06-22T01:10:07.612Z,26.70
2018-06-22T01:12:44.924Z,26.70
2018-06-22T01:15:22.022Z,26.80
2018-06-22T01:17:59.246Z,26.80
2018-06-22T01:20:36.846Z,26.70
2018-06-22T01:23:13.879Z,26.60
2018-06-22T01:25:51.336Z,26.60
2018-06-22T01:28:29.567Z,26.60
2018-06-22T01:31:06.440Z,26.70
2018-06-22T01:33:43.640Z,26.80
2018-06-22T01:36:20.465Z,26.90
2018-06-22T01:38:58.064Z,26.70
2018-06-22T01:41:35.440Z,26.60
2018-06-22T01:44:12.565Z,26.60
2018-06-22T01:46:49.880Z,26.60
2018-06-22T01:49:28.424Z,26.60
2018-06-22T01:52:05.717Z,26.50
2018-06-22T01:54:42.379Z,26.50
2018-06-22T01:57:19.386Z,26.50
2018-06-22T01:59:56.132Z,26.70
2018-06-22T02:02:33.114Z,26.90
2018-06-22T02:05:09.868Z,26.90
2018-06-22T02:07:47.173Z,27.00
2018-06-22T02:10:23.710Z,26.90
2018-06-22T02:13:00.663Z,26.90
2018-06-22T02:15:37.803Z,26.90
2018-06-22T02:18:14.718Z,26.90
2018-06-22T02:20:52.031Z,26.80
2018-06-22T02:23:29.099Z,26.80
2018-06-22T02:26:06.233Z,26.70
2018-06-22T02:28:43.792Z,26.60
2018-06-22T02:31:21.010Z,26.70
2018-06-22T02:33:58.350Z,26.50
2018-06-22T02:36:37.435Z,26.50
2018-06-22T02:39:14.682Z,26.40
2018-06-22T02:41:52.427Z,26.30
2018-06-22T02:44:29.402Z,26.40
2018-06-22T02:47:06.498Z,26.40
2018-06-22T02:49:43.205Z,26.40
2018-06-22T02:52:20.045Z,26.30
2018-06-22T02:54:56.932Z,26.30
2018-06-22T02:57:34.152Z,26.50
2018-06-22T03:00:11.079Z,26.50
2018-06-22T03:02:47.846Z,26.50
2018-06-22T03:05:24.417Z,26.30
2018-06-22T03:08:01.595Z,26.50
2018-06-22T03:10:38.230Z,26.50
2018-06-22T03:13:15.594Z,26.50
2018-06-22T03:15:52.032Z,26.70
2018-06-22T03:18:30.198Z,26.60
2018-06-22T03:21:07.325Z,26.50
2018-06-22T03:23:43.983Z,26.50
2018-06-22T03:26:21.139Z,26.60
2018-06-22T03:28:58.278Z,26.70
2018-06-22T03:31:34.711Z,26.70
2018-06-22T03:34:11.890Z,26.60
2018-06-22T03:36:48.720Z,26.70
2018-06-22T03:39:26.713Z,26.80
2018-06-22T03:42:03.532Z,26.70
2018-06-22T03:44:40.418Z,26.70
2018-06-22T03:47:17.640Z,26.60
2018-06-22T03:49:54.672Z,26.70
2018-06-22T03:52:32.372Z,26.80
2018-06-22T03:55:09.455Z,26.80
2018-06-22T03:57:46.298Z,26.80
2018-06-22T04:00:23.106Z,26.70
2018-06-22T04:03:00.035Z,26.60
2018-06-22T04:05:37.189Z,26.60
2018-06-22T04:08:13.990Z,26.70
2018-06-22T04:10:50.823Z,26.70
2018-06-22T04:13:27.774Z,26.70
2018-06-22T04:16:04.743Z,26.50
2018-06-22T04:18:41.543Z,26.50
2018-06-22T04:21:18.757Z,26.40
2018-06-22T04:23:55.942Z,26.30
2018-06-22T04:26:33.426Z,26.20
2018-06-22T04:29:10.651Z,26.00
2018-06-22T04:31:47.608Z,26.10
2018-06-22T04:34:24.946Z,26.20
2018-06-22T04:37:02.415Z,26.20
2018-06-22T04:39:39.216Z,26.20
2018-06-22T04:42:16.407Z,26.10
2018-06-22T04:44:52.980Z,26.00
2018-06-22T04:47:30.246Z,26.00
2018-06-22T04:50:07.813Z,26.00
2018-06-22T04:52:45.348Z,25.90
2018-06-22T04:55:22.733Z,25.90
2018-06-22T04:57:59.917Z,25.90
2018-06-22T05:00:36.517Z,25.80
2018-06-22T05:03:14.025Z,25.80
2018-06-22T05:08:27.792Z,25.60
2018-06-22T05:11:04.621Z,25.60
2018-06-22T05:13:41.533Z,25.70
2018-06-22T05:18:55.728Z,25.70
2018-06-22T05:21:33.105Z,25.80
2018-06-22T05:24:10.925Z,25.80
2018-06-22T05:26:47.996Z,25.80
2018-06-22T05:29:25.013Z,25.90
2018-06-22T05:32:01.660Z,26.00
2018-06-22T05:34:39.299Z,26.10
2018-06-22T05:37:16.584Z,26.10
2018-06-22T05:42:57.013Z,26.30
2018-06-22T05:45:34.364Z,26.50
2018-06-22T05:48:11.226Z,26.60
2018-06-22T05:50:49.088Z,26.60
2018-06-22T05:53:26.168Z,26.30
2018-06-22T05:58:40.478Z,26.40
2018-06-22T06:01:17.969Z,26.40
2018-06-22T06:03:54.689Z,26.30
2018-06-22T06:06:31.576Z,26.30
2018-06-22T06:09:09.735Z,26.20
2018-06-22T06:11:46.355Z,26.20
2018-06-22T06:14:23.631Z,26.10
2018-06-22T06:17:00.271Z,26.20
2018-06-22T06:19:37.502Z,26.20
2018-06-22T06:22:14.144Z,26.50
2018-06-22T06:24:53.234Z,26.50
2018-06-22T06:27:30.211Z,26.60
2018-06-22T06:32:43.891Z,26.60
2018-06-22T06:35:20.763Z,26.80
2018-06-22T06:37:57.647Z,26.90
2018-06-22T06:40:37.461Z,26.80
2018-06-22T06:43:14.875Z,27.10
2018-06-22T06:45:51.628Z,27.30
2018-06-22T06:48:28.719Z,27.40
2018-06-22T06:51:05.735Z,27.30
2018-06-22T06:53:42.881Z,27.30
2018-06-22T06:56:20.001Z,27.40
2018-06-22T06:58:56.862Z,27.40
2018-06-22T07:01:34.187Z,27.50
2018-06-22T07:04:10.953Z,27.60
2018-06-22T07:06:47.923Z,27.90
2018-06-22T07:09:29.732Z,27.90
2018-06-22T07:12:06.974Z,28.00
2018-06-22T07:17:22.681Z,28.20
2018-06-22T07:20:00.358Z,28.40
2018-06-22T07:22:37.123Z,28.60
2018-06-22T07:25:13.930Z,28.70
2018-06-22T07:27:50.868Z,28.90
2018-06-22T07:30:27.839Z,29.00
2018-06-22T07:33:06.829Z,29.20
2018-06-22T07:35:43.927Z,29.40
2018-06-22T07:38:21.012Z,30.00
2018-06-22T07:40:57.826Z,31.20
2018-06-22T07:43:36.051Z,32.10
2018-06-22T07:46:12.833Z,32.50
2018-06-22T07:48:50.284Z,33.20
2018-06-22T07:51:28.098Z,33.80
2018-06-22T07:54:06.546Z,33.90
2018-06-22T07:56:44.425Z,34.00
2018-06-22T07:59:21.660Z,33.80
2018-06-22T08:01:58.466Z,34.30
2018-06-22T08:04:36.546Z,34.70
2018-06-22T08:07:13.317Z,34.30
2018-06-22T08:09:50.714Z,34.10
2018-06-22T08:12:28.439Z,33.80
2018-06-22T08:15:05.432Z,33.70
2018-06-22T08:17:42.956Z,33.20
2018-06-22T08:20:20.999Z,32.80
2018-06-22T08:22:57.908Z,33.20
2018-06-22T08:25:35.175Z,33.90
2018-06-22T08:28:11.650Z,33.90
2018-06-22T08:30:48.662Z,33.40
2018-06-22T08:33:25.582Z,33.60
2018-06-22T08:36:02.668Z,34.30
2018-06-22T08:38:39.282Z,34.20
2018-06-22T08:41:16.404Z,34.70
2018-06-22T08:43:53.551Z,34.80
2018-06-22T08:46:30.443Z,35.00
2018-06-22T08:51:44.146Z,33.40
2018-06-22T08:54:21.594Z,33.40
2018-06-22T08:56:59.178Z,33.70
2018-06-22T08:59:36.521Z,34.90
2018-06-22T09:02:13.847Z,34.80
2018-06-22T09:04:51.286Z,34.60
2018-06-22T09:07:28.328Z,34.90
2018-06-22T09:10:06.085Z,35.50
2018-06-22T09:12:42.909Z,35.60
2018-06-22T09:15:19.983Z,35.90
2018-06-22T09:17:56.721Z,36.30
2018-06-22T09:20:34.014Z,36.10
2018-06-22T09:23:11.914Z,36.00
2018-06-22T09:25:48.909Z,36.80
2018-06-22T09:28:25.688Z,36.60
2018-06-22T09:31:03.154Z,36.10
2018-06-22T09:33:40.589Z,36.00
2018-06-22T09:36:17.926Z,35.90
2018-06-22T09:38:54.666Z,36.40
2018-06-22T09:41:31.310Z,35.80
2018-06-22T09:44:08.810Z,35.70
2018-06-22T09:46:45.446Z,35.20
2018-06-22T09:49:22.467Z,35.40
2018-06-22T09:51:59.597Z,36.40
2018-06-22T09:54:36.334Z,36.60
2018-06-22T09:57:13.392Z,36.60
2018-06-22T09:59:50.521Z,37.60
2018-06-22T10:02:27.373Z,37.30
2018-06-22T10:05:04.563Z,37.70
2018-06-22T10:07:41.303Z,37.90
2018-06-22T10:10:18.299Z,37.00
2018-06-22T10:12:55.459Z,38.10
2018-06-22T10:15:32.759Z,37.50
2018-06-22T10:18:09.770Z,38.20
2018-06-22T10:20:46.692Z,38.90
2018-06-22T10:23:32.497Z,37.70
2018-06-22T10:26:08.963Z,37.30
2018-06-22T10:28:45.890Z,36.50
2018-06-22T10:31:22.679Z,37.90
2018-06-22T10:33:59.767Z,38.90
2018-06-22T10:36:36.787Z,39.30
2018-06-22T10:39:14.083Z,38.90
2018-06-22T10:41:50.857Z,38.60
2018-06-22T10:44:27.685Z,38.20
2018-06-22T10:47:05.053Z,39.10
2018-06-22T10:49:41.835Z,39.00
2018-06-22T10:52:18.818Z,38.60
2018-06-22T10:54:56.026Z,39.10
2018-06-22T10:57:32.923Z,38.30
2018-06-22T11:00:10.136Z,39.30
2018-06-22T11:02:46.801Z,38.60
2018-06-22T11:05:24.031Z,38.20
2018-06-22T11:08:01.508Z,39.80
2018-06-22T11:10:38.186Z,40.20
2018-06-22T11:13:15.389Z,39.50
2018-06-22T11:15:52.123Z,39.00
2018-06-22T11:18:29.590Z,38.70
2018-06-22T11:21:06.113Z,38.90
2018-06-22T11:23:43.269Z,38.50
2018-06-22T11:26:20.323Z,39.70
2018-06-22T11:28:57.197Z,40.10
2018-06-22T11:31:34.228Z,39.80
2018-06-22T11:34:11.470Z,40.10
2018-06-22T11:36:48.023Z,40.20
2018-06-22T11:39:24.895Z,39.80
2018-06-22T11:42:02.229Z,39.70
2018-06-22T11:44:39.299Z,38.80
2018-06-22T11:47:17.232Z,39.40
2018-06-22T11:49:53.919Z,39.00
2018-06-22T11:52:31.472Z,39.00
2018-06-22T11:55:08.486Z,39.10
2018-06-22T11:57:45.658Z,39.40
2018-06-22T12:00:23.114Z,39.00
2018-06-22T12:03:00.504Z,39.70
2018-06-22T12:05:37.317Z,39.60
2018-06-22T12:08:14.454Z,38.50
2018-06-22T12:10:51.440Z,38.30
2018-06-22T12:13:28.203Z,39.00
2018-06-22T12:16:05.345Z,38.30
2018-06-22T12:18:42.092Z,38.30
2018-06-22T12:21:20.134Z,38.90
2018-06-22T12:23:57.163Z,38.90
2018-06-22T12:26:35.011Z,38.90
2018-06-22T12:29:12.939Z,39.40
2018-06-22T12:31:49.989Z,38.60
2018-06-22T12:34:26.340Z,36.80
2018-06-22T12:37:03.689Z,37.60
2018-06-22T12:42:17.994Z,40.00
2018-06-22T12:44:54.752Z,39.20
2018-06-22T12:47:32.130Z,38.80
2018-06-22T12:50:08.947Z,37.80
2018-06-22T12:52:45.840Z,38.00
2018-06-22T12:55:22.731Z,38.40
2018-06-22T12:57:59.460Z,37.90
2018-06-22T13:00:37.333Z,38.50
2018-06-22T13:03:14.890Z,38.00
2018-06-22T13:05:51.888Z,36.10
2018-06-22T13:08:28.963Z,35.70
2018-06-22T13:11:06.513Z,34.90
2018-06-22T13:13:43.368Z,34.00
2018-06-22T13:16:20.299Z,33.20
2018-06-22T13:18:57.299Z,32.70
2018-06-22T13:21:51.165Z,32.60
2018-06-22T13:24:28.429Z,32.90
2018-06-22T13:27:05.191Z,32.80
2018-06-22T13:29:41.970Z,32.80
2018-06-22T13:32:18.806Z,32.60
2018-06-22T13:34:55.726Z,32.30
2018-06-22T13:37:32.999Z,32.10
2018-06-22T13:40:10.999Z,32.00
2018-06-22T13:42:48.099Z,32.00
2018-06-22T13:45:25.040Z,32.00
2018-06-22T13:48:03.255Z,31.80
2018-06-22T13:50:40.519Z,31.70
2018-06-22T13:53:18.130Z,31.80
2018-06-22T13:55:55.041Z,32.20
2018-06-22T13:58:32.283Z,32.20
2018-06-22T14:01:10.175Z,31.40
2018-06-22T14:03:52.010Z,31.50
2018-06-22T14:06:34.147Z,31.60
2018-06-22T14:09:14.364Z,31.60
2018-06-22T14:11:51.161Z,31.30
2018-06-22T14:14:28.921Z,31.40
2018-06-22T14:17:05.739Z,31.20
2018-06-22T14:19:42.915Z,31.00
2018-06-22T14:22:19.808Z,31.00
2018-06-22T14:24:56.926Z,31.20
2018-06-22T14:27:33.834Z,31.30
2018-06-22T14:30:10.807Z,31.30
2018-06-22T14:32:47.576Z,31.30
2018-06-22T14:35:24.248Z,31.10
2018-06-22T14:38:02.486Z,31.20
2018-06-22T14:40:39.036Z,31.30
2018-06-22T14:43:16.730Z,31.30
2018-06-22T14:45:54.386Z,31.40
2018-06-22T14:48:31.266Z,31.40
2018-06-22T14:51:08.224Z,31.20
2018-06-22T14:53:50.168Z,30.90
2018-06-22T14:56:31.749Z,30.70
2018-06-22T14:59:13.962Z,30.70
2018-06-22T15:01:55.984Z,30.70
2018-06-22T15:04:38.457Z,30.40
2018-06-22T15:07:20.767Z,30.40
2018-06-22T15:09:57.752Z,30.30
2018-06-22T15:12:34.243Z,30.40
2018-06-22T15:15:11.447Z,30.10
2018-06-22T15:17:52.705Z,30.20
2018-06-22T15:20:29.428Z,30.00
2018-06-22T15:23:06.299Z,30.10
2018-06-22T15:25:43.195Z,30.00
2018-06-22T15:28:20.198Z,30.00
2018-06-22T15:30:57.374Z,30.00
2018-06-22T15:33:39.172Z,29.80
2018-06-22T15:36:21.131Z,29.80
2018-06-22T15:39:03.231Z,29.90
2018-06-22T15:41:44.874Z,30.10
2018-06-22T15:44:26.780Z,30.10
2018-06-22T15:47:08.652Z,30.00
2018-06-22T15:49:50.365Z,30.00
2018-06-22T15:52:32.223Z,30.00
2018-06-22T15:55:12.678Z,29.90
2018-06-22T15:57:49.354Z,29.90
2018-06-22T16:00:26.491Z,29.90
2018-06-22T16:03:08.395Z,29.90
2018-06-22T16:05:44.996Z,29.90
2018-06-22T16:08:22.587Z,29.80
2018-06-22T16:10:59.537Z,30.00
2018-06-22T16:13:36.643Z,30.00
2018-06-22T16:16:18.302Z,29.60
2018-06-22T16:19:00.436Z,29.50
2018-06-22T16:21:43.906Z,29.60
2018-06-22T16:24:26.845Z,29.50
2018-06-22T16:27:09.470Z,29.40
2018-06-22T16:29:47.325Z,29.40
2018-06-22T16:32:25.170Z,29.30
2018-06-22T16:35:01.935Z,29.30
2018-06-22T16:37:38.730Z,29.10
2018-06-22T16:40:16.094Z,29.20
2018-06-22T16:42:53.128Z,29.20
2018-06-22T16:45:30.678Z,29.10
2018-06-22T16:48:08.216Z,28.90
2018-06-22T16:50:46.106Z,28.90
2018-06-22T16:53:24.367Z,28.80
2018-06-22T16:56:01.617Z,29.00
2018-06-22T16:58:40.442Z,29.10
2018-06-22T17:01:17.617Z,28.90
2018-06-22T17:03:54.263Z,28.70
2018-06-22T17:06:36.847Z,28.80
2018-06-22T17:09:19.281Z,28.70
2018-06-22T17:12:01.246Z,28.60
2018-06-22T17:16:49.941Z,28.60
2018-06-22T17:19:27.178Z,28.60
2018-06-22T17:22:03.886Z,28.20
2018-06-22T17:24:41.181Z,28.30
2018-06-22T17:27:18.037Z,28.30
2018-06-22T17:29:55.256Z,28.20
2018-06-22T17:32:32.063Z,28.30
2018-06-22T17:35:08.876Z,28.20
2018-06-22T17:37:47.303Z,28.20
2018-06-22T17:40:24.422Z,28.40
2018-06-22T17:43:01.461Z,28.10
2018-06-22T17:48:15.054Z,28.20
2018-06-22T17:50:52.194Z,27.90
2018-06-22T17:53:29.532Z,27.90
2018-06-22T17:56:06.785Z,27.80
2018-06-22T18:01:29.440Z,27.70
2018-06-22T18:04:11.677Z,27.80
2018-06-22T18:06:54.522Z,27.90
2018-06-22T18:09:36.081Z,27.60
2018-06-22T18:12:18.458Z,27.60
2018-06-22T18:14:56.773Z,27.60
2018-06-22T18:17:33.477Z,27.60
2018-06-22T18:20:11.039Z,27.60
2018-06-22T18:25:24.652Z,27.60
2018-06-22T18:28:02.008Z,27.40
2018-06-22T18:30:39.936Z,27.30
2018-06-22T18:33:17.248Z,27.20
2018-06-22T18:35:54.006Z,27.40
2018-06-22T18:38:30.991Z,27.40
2018-06-22T18:41:08.090Z,27.30
2018-06-22T18:43:50.025Z,27.40
2018-06-22T18:46:26.967Z,27.40
2018-06-22T18:49:03.759Z,27.50
2018-06-22T18:51:42.519Z,27.30
2018-06-22T18:54:24.568Z,27.30
2018-06-22T18:57:07.546Z,27.20
2018-06-22T18:59:50.907Z,27.30
2018-06-22T19:02:33.299Z,26.60
2018-06-22T19:05:11.046Z,27.20
2018-06-22T19:07:48.254Z,27.20
2018-06-22T19:10:25.222Z,27.10
2018-06-22T19:13:02.095Z,26.80
2018-06-22T19:15:39.215Z,26.70
2018-06-22T19:18:15.888Z,26.80
2018-06-22T19:20:52.808Z,26.40
2018-06-22T19:23:29.864Z,26.30
2018-06-22T19:26:08.151Z,26.40
2018-06-22T19:28:44.949Z,26.50
2018-06-22T19:31:22.168Z,26.60
2018-06-22T19:34:00.167Z,26.50
2018-06-22T19:36:37.684Z,26.30
2018-06-22T19:39:14.641Z,26.20
2018-06-22T19:41:52.046Z,26.20
2018-06-22T19:44:33.509Z,26.30
2018-06-22T19:47:15.642Z,26.30
2018-06-22T19:49:58.457Z,26.30
2018-06-22T19:52:40.157Z,26.20
2018-06-22T19:55:17.922Z,26.30
2018-06-22T19:57:54.765Z,26.30
2018-06-22T20:00:31.484Z,26.40
2018-06-22T20:03:10.500Z,26.30
2018-06-22T20:05:47.289Z,26.20
2018-06-22T20:08:24.176Z,26.20
2018-06-22T20:11:01.422Z,26.10
2018-06-22T20:13:38.994Z,26.20
2018-06-22T20:16:16.615Z,26.10
2018-06-22T20:18:53.736Z,26.10
2018-06-22T20:21:30.848Z,26.20
2018-06-22T20:24:09.072Z,26.20
2018-06-22T20:26:45.782Z,26.30
2018-06-22T20:29:24.071Z,26.30
2018-06-22T20:32:01.019Z,26.20
2018-06-22T20:39:34.608Z,26.20
2018-06-22T20:42:16.090Z,26.10
2018-06-22T20:44:58.949Z,26.20
2018-06-22T20:47:41.582Z,26.20
2018-06-22T20:50:23.833Z,26.10
2018-06-22T20:53:00.943Z,26.10
2018-06-22T20:55:38.915Z,26.00
2018-06-22T20:58:15.760Z,26.20
2018-06-22T21:00:52.975Z,26.10
2018-06-22T21:03:31.558Z,26.10
2018-06-22T21:06:09.409Z,26.20
2018-06-22T21:08:48.018Z,26.20
2018-06-22T21:11:24.418Z,26.00
2018-06-22T21:14:01.682Z,26.20
2018-06-22T21:16:39.214Z,26.30
2018-06-22T21:19:16.580Z,26.30
2018-06-22T21:22:03.238Z,26.40
2018-06-22T21:24:40.714Z,26.30
2018-06-22T21:27:23.018Z,26.40
2018-06-22T21:32:10.418Z,26.50
2018-06-22T21:34:52.644Z,26.40
2018-06-22T21:37:34.556Z,26.20
2018-06-22T21:40:11.406Z,26.10
2018-06-22T21:45:24.490Z,26.20
2018-06-22T21:48:02.066Z,26.20
2018-06-22T21:50:41.163Z,26.10
2018-06-22T21:55:55.869Z,26.30
2018-06-22T21:58:33.930Z,26.30
2018-06-22T22:01:11.087Z,26.30
2018-06-22T22:03:49.517Z,24.80
2018-06-22T22:06:27.177Z,26.40
2018-06-22T22:09:05.005Z,26.30
2018-06-22T22:11:47.800Z,26.40
2018-06-22T22:14:26.219Z,26.50
2018-06-22T22:17:03.673Z,26.40
2018-06-22T22:19:41.190Z,26.40
2018-06-22T22:22:17.880Z,26.30
2018-06-22T22:24:55.691Z,26.20
2018-06-22T22:27:32.710Z,26.10
2018-06-22T22:30:09.862Z,26.00
2018-06-22T22:32:46.702Z,26.00
2018-06-22T22:35:24.199Z,26.10
2018-06-22T22:38:01.176Z,26.30
2018-06-22T22:40:38.668Z,26.30
2018-06-22T22:43:16.174Z,26.10
2018-06-22T22:45:52.762Z,26.20
2018-06-22T22:48:29.733Z,26.40
2018-06-22T22:51:07.086Z,26.30
2018-06-22T22:53:48.019Z,26.30
2018-06-22T22:56:24.977Z,26.40
2018-06-22T22:59:02.058Z,26.20
2018-06-22T23:01:39.445Z,26.20
2018-06-22T23:04:16.268Z,26.10
2018-06-22T23:06:53.084Z,26.20
2018-06-22T23:09:29.914Z,26.00
2018-06-22T23:12:07.317Z,26.20
2018-06-22T23:14:45.326Z,26.00
2018-06-22T23:17:21.934Z,26.10
2018-06-22T23:19:59.143Z,26.10
2018-06-22T23:22:46.551Z,26.00
2018-06-22T23:25:24.842Z,26.00
2018-06-22T23:30:38.636Z,26.00
2018-06-22T23:33:16.670Z,25.90
2018-06-22T23:35:58.024Z,25.90
2018-06-22T23:38:35.240Z,25.90
2018-06-22T23:41:11.781Z,25.80
2018-06-22T23:43:49.721Z,25.60
2018-06-22T23:46:26.501Z,25.50
2018-06-22T23:49:03.651Z,25.50
2018-06-22T23:51:41.199Z,25.50
2018-06-22T23:54:18.187Z,25.50
2018-06-22T23:56:54.953Z,25.60
2018-06-22T23:59:32.191Z,25.60
